createdAt,value
2022-12-19T00:01:18.691Z,10.97
2022-12-19T00:03:47.557Z,9.17
2022-12-19T00:06:16.225Z,8.40
2022-12-19T00:08:45.280Z,7.43
2022-12-19T00:11:14.549Z,10.43
2022-12-19T00:13:43.957Z,9.20
2022-12-19T00:16:14.314Z,5.57
2022-12-19T00:18:43.280Z,10.23
2022-12-19T00:21:12.567Z,8.47
2022-12-19T00:23:40.575Z,11.93
2022-12-19T00:26:10.412Z,10.00
2022-12-19T00:28:38.315Z,12.23
2022-12-19T00:31:08.339Z,9.60
2022-12-19T00:33:37.876Z,11.67
2022-12-19T00:36:13.372Z,12.37
2022-12-19T00:38:42.827Z,9.53
2022-12-19T00:41:11.458Z,8.53
2022-12-19T00:43:40.033Z,9.20
2022-12-19T00:46:12.013Z,10.70
2022-12-19T00:48:40.019Z,10.53
2022-12-19T00:51:09.777Z,13.37
2022-12-19T00:53:37.986Z,9.63
2022-12-19T00:56:07.848Z,12.67
2022-12-19T00:58:36.029Z,13.27
2022-12-19T01:01:07.322Z,10.50
2022-12-19T01:03:36.960Z,11.37
2022-12-19T01:06:05.356Z,8.83
2022-12-19T01:08:33.654Z,10.63
2022-12-19T01:11:01.590Z,14.20
2022-12-19T01:13:30.304Z,14.17
2022-12-19T01:15:58.343Z,11.03
2022-12-19T01:18:26.322Z,11.53
2022-12-19T01:20:55.587Z,10.90
2022-12-19T01:23:23.517Z,11.80
2022-12-19T01:25:54.284Z,12.50
2022-12-19T01:28:22.226Z,13.07
2022-12-19T01:30:51.089Z,9.90
2022-12-19T01:33:21.148Z,11.13
2022-12-19T01:35:49.378Z,13.23
2022-12-19T01:38:20.723Z,13.50
2022-12-19T01:40:52.997Z,10.23
2022-12-19T01:43:21.177Z,15.30
2022-12-19T01:45:49.669Z,12.13
2022-12-19T01:48:22.018Z,13.67
2022-12-19T01:51:00.623Z,12.63
2022-12-19T01:53:35.011Z,7.40
2022-12-19T01:56:09.707Z,10.47
2022-12-19T01:58:40.454Z,11.93
2022-12-19T02:01:08.470Z,11.93
2022-12-19T02:03:38.568Z,10.87
2022-12-19T02:06:07.782Z,14.07
2022-12-19T02:08:37.701Z,15.13
2022-12-19T02:11:05.784Z,12.07
2022-12-19T02:13:34.000Z,16.77
2022-12-19T02:16:07.127Z,11.57
2022-12-19T02:18:41.262Z,10.03
2022-12-19T02:21:24.307Z,12.23
2022-12-19T02:24:18.886Z,12.90
2022-12-19T02:26:58.344Z,14.43
2022-12-19T02:29:52.547Z,12.57
2022-12-19T02:32:24.223Z,13.37
2022-12-19T02:34:57.895Z,12.23
2022-12-19T02:37:29.331Z,13.87
2022-12-19T02:40:04.362Z,14.77
2022-12-19T02:42:34.922Z,12.40
2022-12-19T02:45:04.163Z,11.20
2022-12-19T02:47:34.284Z,11.87
2022-12-19T02:50:02.954Z,12.60
2022-12-19T02:52:46.295Z,13.57
2022-12-19T02:55:16.975Z,12.37
2022-12-19T02:58:03.514Z,13.73
2022-12-19T03:00:32.224Z,14.57
2022-12-19T03:03:07.269Z,14.80
2022-12-19T03:05:42.303Z,15.83
2022-12-19T03:08:17.693Z,14.50
2022-12-19T03:10:48.456Z,13.00
2022-12-19T03:13:20.062Z,9.53
2022-12-19T03:15:48.186Z,17.80
2022-12-19T03:18:17.483Z,15.83
2022-12-19T03:20:48.886Z,14.80
2022-12-19T03:23:17.347Z,11.80
2022-12-19T03:25:48.376Z,12.53
2022-12-19T03:28:21.052Z,10.03
2022-12-19T03:30:49.490Z,16.40
2022-12-19T03:33:20.640Z,14.77
2022-12-19T03:35:50.495Z,17.10
2022-12-19T03:38:19.644Z,14.00
2022-12-19T03:40:48.029Z,13.53
2022-12-19T03:43:16.868Z,14.77
2022-12-19T03:45:49.422Z,16.43
2022-12-19T03:48:23.516Z,13.20
2022-12-19T03:50:57.218Z,10.87
2022-12-19T03:53:34.902Z,13.93
2022-12-19T03:56:07.976Z,15.13
2022-12-19T03:58:39.575Z,14.97
2022-12-19T04:01:07.835Z,17.90
2022-12-19T04:03:37.229Z,14.47
2022-12-19T04:06:06.416Z,16.60
2022-12-19T04:08:35.320Z,15.90
2022-12-19T04:11:06.601Z,16.53
2022-12-19T04:13:39.125Z,19.57
2022-12-19T04:16:13.203Z,15.00
2022-12-19T04:18:47.787Z,18.07
2022-12-19T04:21:19.109Z,14.43
2022-12-19T04:23:49.127Z,16.47
2022-12-19T04:26:18.165Z,20.70
2022-12-19T04:28:52.001Z,19.23
2022-12-19T04:31:21.691Z,17.17
2022-12-19T04:33:51.145Z,17.37
2022-12-19T04:36:19.169Z,14.13
2022-12-19T04:38:47.152Z,18.07
2022-12-19T04:41:15.145Z,18.03
2022-12-19T04:43:43.054Z,16.43
2022-12-19T04:46:11.000Z,20.57
2022-12-19T04:48:39.189Z,17.17
2022-12-19T04:51:08.620Z,18.60
2022-12-19T04:53:36.867Z,17.13
2022-12-19T04:56:06.755Z,19.87
2022-12-19T04:58:34.975Z,17.87
2022-12-19T05:01:03.544Z,14.87
2022-12-19T05:03:31.528Z,17.53
2022-12-19T05:06:08.707Z,22.13
2022-12-19T05:08:36.859Z,25.17
2022-12-19T05:11:05.705Z,16.17
2022-12-19T05:13:33.877Z,19.13
2022-12-19T05:16:03.271Z,13.70
2022-12-19T05:18:31.729Z,18.87
2022-12-19T05:21:00.032Z,19.77
2022-12-19T05:23:29.852Z,15.53
2022-12-19T05:25:58.847Z,19.07
2022-12-19T05:28:26.836Z,19.17
2022-12-19T05:31:04.169Z,19.13
2022-12-19T05:33:32.222Z,15.87
2022-12-19T05:36:00.130Z,20.53
2022-12-19T05:38:30.053Z,19.80
2022-12-19T05:40:57.953Z,20.70
2022-12-19T05:43:25.878Z,21.13
2022-12-19T05:45:53.826Z,21.47
2022-12-19T05:48:21.718Z,16.40
2022-12-19T05:50:50.390Z,18.23
2022-12-19T05:53:21.911Z,19.83
2022-12-19T05:55:54.234Z,16.77
2022-12-19T05:58:22.130Z,19.37
2022-12-19T06:00:50.077Z,19.43
2022-12-19T06:03:18.105Z,22.17
2022-12-19T06:05:46.458Z,22.30
2022-12-19T06:08:14.351Z,20.03
2022-12-19T06:10:42.251Z,20.80
2022-12-19T06:13:11.567Z,16.37
2022-12-19T06:15:39.482Z,21.17
2022-12-19T06:18:07.871Z,19.97
2022-12-19T06:20:35.798Z,17.47
2022-12-19T06:23:03.786Z,21.30
2022-12-19T06:25:31.701Z,18.10
2022-12-19T06:27:59.616Z,20.70
2022-12-19T06:30:28.938Z,22.60
2022-12-19T06:32:56.867Z,17.20
2022-12-19T06:35:24.864Z,18.13
2022-12-19T06:37:55.351Z,14.40
2022-12-19T06:40:44.560Z,18.97
2022-12-19T06:43:12.603Z,18.70
2022-12-19T06:45:41.919Z,20.00
2022-12-19T06:48:09.820Z,21.70
2022-12-19T06:50:37.706Z,20.83
2022-12-19T06:53:06.939Z,16.93
2022-12-19T06:55:37.235Z,15.10
2022-12-19T06:58:05.543Z,15.13
2022-12-19T07:00:36.598Z,17.60
2022-12-19T07:03:08.021Z,18.83
2022-12-19T07:05:36.063Z,20.37
2022-12-19T07:08:04.311Z,19.27
2022-12-19T07:10:32.313Z,22.70
2022-12-19T07:13:00.263Z,18.47
2022-12-19T07:15:28.539Z,21.73
2022-12-19T07:17:56.447Z,18.60
2022-12-19T07:20:25.816Z,17.93
2022-12-19T07:22:54.304Z,14.70
2022-12-19T07:25:22.214Z,16.93
2022-12-19T07:27:50.542Z,17.53
2022-12-19T07:30:18.824Z,18.77
2022-12-19T07:32:46.736Z,21.27
2022-12-19T07:35:15.879Z,17.60
2022-12-19T07:37:45.563Z,20.10
2022-12-19T07:40:13.987Z,21.20
2022-12-19T07:42:41.984Z,20.10
2022-12-19T07:45:10.669Z,15.87
2022-12-19T07:47:38.626Z,19.33
2022-12-19T07:50:07.169Z,18.60
2022-12-19T07:52:35.117Z,18.27
2022-12-19T07:55:04.482Z,17.43
2022-12-19T07:57:32.376Z,20.17
2022-12-19T08:00:00.346Z,20.90
2022-12-19T08:02:28.414Z,22.77
2022-12-19T08:04:56.434Z,23.03
2022-12-19T08:07:24.357Z,22.53
2022-12-19T08:09:52.330Z,21.30
2022-12-19T08:12:21.655Z,20.80
2022-12-19T08:14:52.778Z,18.93
2022-12-19T08:17:23.503Z,24.17
2022-12-19T08:19:51.432Z,22.77
2022-12-19T08:22:19.431Z,24.23
2022-12-19T08:24:47.525Z,22.77
2022-12-19T08:27:17.186Z,23.93
2022-12-19T08:29:47.536Z,29.53
2022-12-19T08:32:20.755Z,23.00
2022-12-19T08:34:49.719Z,22.43
2022-12-19T08:37:17.794Z,23.53
2022-12-19T08:39:45.747Z,28.20
2022-12-19T08:42:13.679Z,35.73
2022-12-19T08:44:41.589Z,23.17
2022-12-19T08:47:11.116Z,23.03
2022-12-19T08:49:39.038Z,27.70
2022-12-19T08:52:07.010Z,26.40
2022-12-19T08:54:35.042Z,22.80
2022-12-19T08:57:02.959Z,31.90
2022-12-19T08:59:32.148Z,27.37
2022-12-19T09:02:01.073Z,23.53
2022-12-19T09:05:22.949Z,22.37
2022-12-19T09:07:18.872Z,27.70
2022-12-19T09:09:46.812Z,18.63
2022-12-19T09:12:16.069Z,17.47
2022-12-19T09:14:44.731Z,22.73
2022-12-19T09:17:12.753Z,30.33
2022-12-19T09:19:44.320Z,25.70
2022-12-19T09:22:16.124Z,26.00
2022-12-19T09:24:44.149Z,23.57
2022-12-19T09:27:12.241Z,23.70
2022-12-19T09:29:41.371Z,23.23
2022-12-19T09:32:09.285Z,22.83
2022-12-19T09:34:39.149Z,23.23
2022-12-19T09:37:10.367Z,24.93
2022-12-19T09:39:44.413Z,29.13
2022-12-19T09:42:40.601Z,20.27
2022-12-19T09:45:32.867Z,20.50
2022-12-19T09:48:02.404Z,27.67
2022-12-19T09:50:45.327Z,23.40
2022-12-19T09:53:21.118Z,22.50
2022-12-19T09:55:49.612Z,26.63
2022-12-19T09:58:25.810Z,24.23
2022-12-19T10:01:00.237Z,25.33
2022-12-19T10:03:32.282Z,24.17
2022-12-19T10:07:11.876Z,25.40
2022-12-19T10:10:34.079Z,28.77
2022-12-19T10:12:42.398Z,25.40
2022-12-19T10:14:58.410Z,22.73
2022-12-19T10:17:32.853Z,26.07
2022-12-19T10:20:14.185Z,22.53
2022-12-19T10:22:51.672Z,23.73
2022-12-19T10:25:41.542Z,25.17
2022-12-19T10:28:20.471Z,19.43
2022-12-19T10:30:53.848Z,19.07
2022-12-19T10:33:28.116Z,22.20
2022-12-19T10:36:02.288Z,26.37
2022-12-19T10:38:35.608Z,24.50
2022-12-19T10:41:16.848Z,26.10
2022-12-19T10:43:52.281Z,22.47
2022-12-19T10:46:24.807Z,22.00
2022-12-19T10:48:53.142Z,29.53
2022-12-19T10:51:24.538Z,28.37
2022-12-19T10:53:55.259Z,26.30
2022-12-19T10:56:31.705Z,25.60
2022-12-19T10:59:05.648Z,23.63
2022-12-19T11:01:40.005Z,27.90
2022-12-19T11:04:27.823Z,21.10
2022-12-19T11:07:07.425Z,22.30
2022-12-19T11:09:38.348Z,21.07
2022-12-19T11:16:25.618Z,27.00
2022-12-19T11:19:57.307Z,22.77
2022-12-19T11:28:24.504Z,17.43
2022-12-19T11:29:25.823Z,19.90
2022-12-19T11:30:39.082Z,25.07
2022-12-19T11:30:41.124Z,22.17
2022-12-19T11:32:41.091Z,25.83
2022-12-19T11:35:19.919Z,26.67
2022-12-19T11:37:55.562Z,24.20
2022-12-19T11:40:32.612Z,26.50
2022-12-19T11:43:42.476Z,22.83
2022-12-19T11:45:58.207Z,22.00
2022-12-19T11:48:36.498Z,19.13
2022-12-19T11:51:08.411Z,27.70
2022-12-19T11:53:46.985Z,24.17
2022-12-19T11:56:17.978Z,24.73
2022-12-19T11:58:47.746Z,20.67
2022-12-19T12:01:23.934Z,22.43
2022-12-19T12:04:15.025Z,21.77
2022-12-19T12:06:53.906Z,19.57
2022-12-19T12:12:24.918Z,19.73
2022-12-19T12:18:25.575Z,15.07
2022-12-19T12:30:08.242Z,14.20
2022-12-19T12:31:00.652Z,19.53
2022-12-19T12:31:10.256Z,16.00
2022-12-19T12:31:44.387Z,18.23
2022-12-19T12:31:58.651Z,20.67
2022-12-19T12:32:06.050Z,21.27
2022-12-19T12:35:50.921Z,21.57
2022-12-19T12:38:13.555Z,18.50
2022-12-19T12:39:41.005Z,21.37
2022-12-19T12:42:19.531Z,20.37
2022-12-19T12:45:25.990Z,18.63
2022-12-19T12:47:54.577Z,18.50
2022-12-19T12:50:24.775Z,20.73
2022-12-19T12:52:55.377Z,23.87
2022-12-19T12:55:28.856Z,18.40
2022-12-19T12:57:56.980Z,20.47
2022-12-19T13:00:27.228Z,16.87
2022-12-19T13:02:58.034Z,16.37
2022-12-19T13:05:53.754Z,17.87
2022-12-19T13:08:38.743Z,17.23
2022-12-19T13:11:35.165Z,19.00
2022-12-19T13:14:03.415Z,22.03
2022-12-19T13:16:53.199Z,16.90
2022-12-19T13:19:28.350Z,20.27
2022-12-19T13:22:19.575Z,24.43
2022-12-19T13:24:50.164Z,20.00
2022-12-19T13:27:36.771Z,22.20
2022-12-19T13:30:20.479Z,20.27
2022-12-19T13:33:12.684Z,21.13
2022-12-19T13:39:41.956Z,22.60
2022-12-19T13:39:48.418Z,21.60
2022-12-19T13:41:47.310Z,19.93
2022-12-19T13:44:20.208Z,19.70
2022-12-19T13:46:48.751Z,18.97
2022-12-19T13:49:20.261Z,19.87
2022-12-19T13:51:49.834Z,19.17
2022-12-19T13:54:23.064Z,18.27
2022-12-19T13:56:52.207Z,20.17
2022-12-19T13:59:23.279Z,21.83
2022-12-19T14:01:53.268Z,24.97
2022-12-19T14:04:28.914Z,21.40
2022-12-19T14:07:00.659Z,20.77
2022-12-19T14:11:26.021Z,20.77
2022-12-19T14:13:43.231Z,19.77
2022-12-19T14:15:30.912Z,24.70
2022-12-19T14:18:41.792Z,20.97
2022-12-19T14:22:03.625Z,25.87
2022-12-19T14:23:43.543Z,32.17
2022-12-19T14:28:19.528Z,31.80
2022-12-19T14:29:07.004Z,30.00
2022-12-19T14:31:38.862Z,23.67
2022-12-19T14:34:47.268Z,26.87
2022-12-19T14:39:18.412Z,25.93
2022-12-19T14:40:26.913Z,25.53
2022-12-19T14:43:56.472Z,21.33
2022-12-19T14:54:01.419Z,23.63
2022-12-19T14:54:02.602Z,21.87
2022-12-19T14:54:40.480Z,28.43
2022-12-19T14:56:08.173Z,18.13
2022-12-19T14:58:52.379Z,18.53
2022-12-19T15:01:24.660Z,23.27
2022-12-19T15:04:51.738Z,25.73
2022-12-19T15:07:08.176Z,23.90
2022-12-19T15:11:03.469Z,24.13
2022-12-19T15:14:51.838Z,32.93
2022-12-19T15:15:45.659Z,38.70
2022-12-19T15:18:23.232Z,25.37
2022-12-19T15:20:51.786Z,30.50
2022-12-19T15:23:22.815Z,26.20
2022-12-19T15:26:08.249Z,23.37
2022-12-19T15:28:40.077Z,28.87
2022-12-19T15:31:15.718Z,21.80
2022-12-19T15:34:07.126Z,20.43
2022-12-19T15:36:32.033Z,27.73
2022-12-19T15:39:02.524Z,20.50
2022-12-19T15:41:31.231Z,24.87
2022-12-19T15:44:04.588Z,27.57
2022-12-19T15:46:34.040Z,23.97
2022-12-19T15:49:02.736Z,23.90
2022-12-19T15:52:03.268Z,25.07
2022-12-19T15:59:05.253Z,30.00
2022-12-19T16:01:33.819Z,29.83
2022-12-19T16:04:03.538Z,22.27
2022-12-19T16:06:31.616Z,24.57
2022-12-19T16:08:59.808Z,23.73
2022-12-19T16:11:27.761Z,28.17
2022-12-19T16:13:57.288Z,30.33
2022-12-19T16:16:26.870Z,32.77
2022-12-19T16:18:55.107Z,22.83
2022-12-19T16:21:31.482Z,28.60
2022-12-19T16:24:01.742Z,31.57
2022-12-19T16:26:33.514Z,24.63
2022-12-19T16:29:01.967Z,27.27
2022-12-19T16:31:31.763Z,28.20
2022-12-19T16:34:00.410Z,26.40
2022-12-19T16:36:28.620Z,32.13
2022-12-19T16:38:56.518Z,33.17
2022-12-19T16:41:25.845Z,30.67
2022-12-19T16:43:54.119Z,32.53
2022-12-19T16:46:26.424Z,24.53
2022-12-19T16:48:55.823Z,31.87
2022-12-19T16:51:25.920Z,25.50
2022-12-19T16:53:57.627Z,30.90
2022-12-19T16:56:27.679Z,27.37
2022-12-19T16:58:57.000Z,26.43
2022-12-19T17:01:25.104Z,29.80
2022-12-19T17:03:53.112Z,26.10
2022-12-19T17:06:23.962Z,25.43
2022-12-19T17:08:51.934Z,29.03
2022-12-19T17:11:21.818Z,24.30
2022-12-19T17:13:50.758Z,24.60
2022-12-19T17:16:18.937Z,27.70
2022-12-19T17:18:47.413Z,27.57
2022-12-19T17:21:17.938Z,20.53
2022-12-19T17:23:47.429Z,24.50
2022-12-19T17:26:18.018Z,24.90
2022-12-19T17:28:48.176Z,26.90
2022-12-19T17:31:22.401Z,24.37
2022-12-19T17:33:50.657Z,24.40
2022-12-19T17:36:24.840Z,26.57
2022-12-19T17:38:55.540Z,28.30
2022-12-19T17:41:23.471Z,21.27
2022-12-19T17:43:51.549Z,32.40
2022-12-19T17:46:20.660Z,30.90
2022-12-19T17:48:51.324Z,25.47
2022-12-19T17:51:20.211Z,25.17
2022-12-19T17:53:49.525Z,24.03
2022-12-19T17:56:20.544Z,23.63
2022-12-19T17:58:48.544Z,19.60
2022-12-19T18:01:21.048Z,22.10
2022-12-19T18:03:49.384Z,18.97
2022-12-19T18:06:17.533Z,21.73
2022-12-19T18:08:45.913Z,21.10
2022-12-19T18:11:20.619Z,21.90
2022-12-19T18:13:48.944Z,26.10
2022-12-19T18:16:19.600Z,23.47
2022-12-19T18:18:48.069Z,25.27
2022-12-19T18:21:18.880Z,19.60
2022-12-19T18:23:46.950Z,20.50
2022-12-19T18:26:15.415Z,20.33
2022-12-19T18:28:44.992Z,22.60
2022-12-19T18:31:15.590Z,24.23
2022-12-19T18:33:46.551Z,22.67
2022-12-19T18:36:19.331Z,27.17
2022-12-19T18:38:48.727Z,23.67
2022-12-19T18:41:18.576Z,25.10
2022-12-19T18:43:48.488Z,21.10
2022-12-19T18:46:18.764Z,22.97
2022-12-19T18:48:47.069Z,24.80
2022-12-19T18:51:16.665Z,25.50
2022-12-19T18:53:45.625Z,22.63
2022-12-19T18:56:13.595Z,25.50
2022-12-19T18:58:41.689Z,19.07
2022-12-19T19:01:15.489Z,21.40
2022-12-19T19:03:53.429Z,19.17
2022-12-19T19:06:22.943Z,17.43
2022-12-19T19:08:52.088Z,20.10
2022-12-19T19:11:23.434Z,22.53
2022-12-19T19:13:51.839Z,20.60
2022-12-19T19:16:22.804Z,18.53
2022-12-19T19:18:56.600Z,25.27
2022-12-19T19:21:26.890Z,20.17
2022-12-19T19:24:00.803Z,21.17
2022-12-19T19:26:29.975Z,19.70
2022-12-19T19:28:57.933Z,21.27
2022-12-19T19:31:29.855Z,16.73
2022-12-19T19:34:02.186Z,21.33
2022-12-19T19:36:32.500Z,21.03
2022-12-19T19:39:00.454Z,19.43
2022-12-19T19:41:33.015Z,25.03
2022-12-19T19:44:01.427Z,23.57
2022-12-19T19:46:31.091Z,23.27
2022-12-19T19:49:02.310Z,21.63
2022-12-19T19:51:30.236Z,20.60
2022-12-19T19:53:58.158Z,18.87
2022-12-19T19:56:26.141Z,19.67
2022-12-19T19:58:55.297Z,19.93
2022-12-19T20:01:23.350Z,19.60
2022-12-19T20:03:52.735Z,17.10
2022-12-19T20:06:21.976Z,17.00
2022-12-19T20:08:50.459Z,19.80
2022-12-19T20:11:20.478Z,18.83
2022-12-19T20:13:48.415Z,20.33
2022-12-19T20:16:18.819Z,22.13
2022-12-19T20:18:49.466Z,16.67
2022-12-19T20:21:19.776Z,18.43
2022-12-19T20:23:47.892Z,18.87
2022-12-19T20:26:16.775Z,21.13
2022-12-19T20:28:49.091Z,20.03
2022-12-19T20:31:18.928Z,17.93
2022-12-19T20:33:48.442Z,18.30
2022-12-19T20:36:18.080Z,20.13
2022-12-19T20:38:46.397Z,19.63
2022-12-19T20:41:14.459Z,16.20
2022-12-19T20:43:42.508Z,18.73
2022-12-19T20:46:12.256Z,15.83
2022-12-19T20:48:40.356Z,22.50
2022-12-19T20:51:08.738Z,16.57
2022-12-19T20:53:39.161Z,15.93
2022-12-19T20:56:09.255Z,19.13
2022-12-19T20:58:38.716Z,17.60
2022-12-19T21:01:08.493Z,18.70
2022-12-19T21:03:37.300Z,21.03
2022-12-19T21:06:05.944Z,20.63
2022-12-19T21:08:33.957Z,14.97
2022-12-19T21:11:03.885Z,18.27
2022-12-19T21:13:31.968Z,13.23
2022-12-19T21:16:02.936Z,19.17
2022-12-19T21:18:31.197Z,20.30
2022-12-19T21:21:00.134Z,15.03
2022-12-19T21:23:28.756Z,15.40
2022-12-19T21:25:58.975Z,18.77
2022-12-19T21:28:28.854Z,16.90
2022-12-19T21:30:57.847Z,16.20
2022-12-19T21:33:25.800Z,20.13
2022-12-19T21:35:53.719Z,16.13
2022-12-19T21:38:22.008Z,16.63
2022-12-19T21:40:49.952Z,15.40
2022-12-19T21:43:17.848Z,17.03
2022-12-19T21:45:47.277Z,14.90
2022-12-19T21:48:15.182Z,17.53
2022-12-19T21:50:43.095Z,13.50
2022-12-19T21:53:10.995Z,15.80
2022-12-19T21:55:38.918Z,13.40
2022-12-19T21:58:06.811Z,18.33
2022-12-19T22:00:34.838Z,16.43
2022-12-19T22:03:19.581Z,17.57
2022-12-19T22:05:47.560Z,15.63
2022-12-19T22:08:15.448Z,16.87
2022-12-19T22:10:44.118Z,17.20
2022-12-19T22:13:12.045Z,21.93
2022-12-19T22:15:40.098Z,14.73
2022-12-19T22:18:09.508Z,20.00
2022-12-19T22:20:42.138Z,16.03
2022-12-19T22:23:13.569Z,15.10
2022-12-19T22:25:42.051Z,13.47
2022-12-19T22:28:09.953Z,13.67
2022-12-19T22:30:37.899Z,13.63
2022-12-19T22:33:05.965Z,13.03
2022-12-19T22:35:35.929Z,14.57
2022-12-19T22:38:04.221Z,13.97
2022-12-19T22:40:33.191Z,13.23
2022-12-19T22:43:01.087Z,13.17
2022-12-19T22:45:31.373Z,13.10
2022-12-19T22:47:59.320Z,17.87
2022-12-19T22:50:27.326Z,12.00
2022-12-19T22:52:56.933Z,15.20
2022-12-19T22:55:24.845Z,13.63
2022-12-19T22:57:53.088Z,13.03
2022-12-19T23:00:21.721Z,13.93
2022-12-19T23:02:49.830Z,14.87
2022-12-19T23:05:17.996Z,13.53
2022-12-19T23:07:45.916Z,11.30
2022-12-19T23:10:15.443Z,14.13
2022-12-19T23:12:43.724Z,14.73
2022-12-19T23:15:12.410Z,10.87
2022-12-19T23:17:40.328Z,13.13
2022-12-19T23:20:09.791Z,10.97
2022-12-19T23:22:37.866Z,14.57
2022-12-19T23:25:06.903Z,16.37
2022-12-19T23:27:36.277Z,11.37
2022-12-19T23:30:04.303Z,15.10
2022-12-19T23:32:33.124Z,12.63
2022-12-19T23:35:01.048Z,10.07
2022-12-19T23:37:28.977Z,15.17
2022-12-19T23:39:57.619Z,14.33
2022-12-19T23:42:25.585Z,12.77
2022-12-19T23:44:54.989Z,11.97
2022-12-19T23:47:22.989Z,10.47
2022-12-19T23:49:50.910Z,9.10
2022-12-19T23:52:18.903Z,10.83
2022-12-19T23:54:47.955Z,11.87
2022-12-19T23:57:15.912Z,14.60
2022-12-19T23:59:43.830Z,10.47
